sensor_id;sensor_type;location;lat;lon;timestamp;P1;durP1;ratioP1;P2;durP2;ratioP2
2019;SDS011;1014;51.960;8.542;2022-12-16T00:01:01;28.95;;;26.50;;
2019;SDS011;1014;51.960;8.542;2022-12-16T00:03:28;28.98;;;26.55;;
2019;SDS011;1014;51.960;8.542;2022-12-16T00:05:55;29.45;;;27.15;;
2019;SDS011;1014;51.960;8.542;2022-12-16T00:08:23;26.58;;;24.55;;
2019;SDS011;1014;51.960;8.542;2022-12-16T00:10:55;28.00;;;25.95;;
2019;SDS011;1014;51.960;8.542;2022-12-16T00:13:22;28.67;;;26.58;;
2019;SDS011;1014;51.960;8.542;2022-12-16T00:15:49;26.92;;;25.08;;
2019;SDS011;1014;51.960;8.542;2022-12-16T00:18:16;28.17;;;25.80;;
2019;SDS011;1014;51.960;8.542;2022-12-16T00:20:44;28.13;;;25.77;;
2019;SDS011;1014;51.960;8.542;2022-12-16T00:23:11;27.02;;;24.67;;
2019;SDS011;1014;51.960;8.542;2022-12-16T00:25:41;27.60;;;25.67;;
2019;SDS011;1014;51.960;8.542;2022-12-16T00:28:08;27.20;;;25.20;;
2019;SDS011;1014;51.960;8.542;2022-12-16T00:30:36;27.70;;;25.50;;
2019;SDS011;1014;51.960;8.542;2022-12-16T00:33:03;27.42;;;25.02;;
2019;SDS011;1014;51.960;8.542;2022-12-16T00:35:30;28.63;;;26.30;;
2019;SDS011;1014;51.960;8.542;2022-12-16T00:37:58;29.10;;;26.75;;
2019;SDS011;1014;51.960;8.542;2022-12-16T00:40:25;29.23;;;26.67;;
2019;SDS011;1014;51.960;8.542;2022-12-16T00:42:53;29.13;;;26.38;;
2019;SDS011;1014;51.960;8.542;2022-12-16T00:45:20;29.02;;;26.67;;
2019;SDS011;1014;51.960;8.542;2022-12-16T00:47:48;31.23;;;28.38;;
2019;SDS011;1014;51.960;8.542;2022-12-16T00:50:15;29.35;;;26.73;;
2019;SDS011;1014;51.960;8.542;2022-12-16T00:52:43;28.83;;;26.08;;
2019;SDS011;1014;51.960;8.542;2022-12-16T00:55:10;30.55;;;27.00;;
2019;SDS011;1014;51.960;8.542;2022-12-16T00:57:37;28.20;;;25.50;;
2019;SDS011;1014;51.960;8.542;2022-12-16T01:00:07;29.20;;;26.55;;
2019;SDS011;1014;51.960;8.542;2022-12-16T01:02:36;29.88;;;27.17;;
2019;SDS011;1014;51.960;8.542;2022-12-16T01:05:04;28.45;;;26.45;;
2019;SDS011;1014;51.960;8.542;2022-12-16T01:07:31;27.45;;;25.45;;
2019;SDS011;1014;51.960;8.542;2022-12-16T01:09:58;26.90;;;24.90;;
2019;SDS011;1014;51.960;8.542;2022-12-16T01:12:25;26.30;;;24.35;;
2019;SDS011;1014;51.960;8.542;2022-12-16T01:14:52;27.20;;;25.10;;
2019;SDS011;1014;51.960;8.542;2022-12-16T01:17:20;27.02;;;25.08;;
2019;SDS011;1014;51.960;8.542;2022-12-16T01:19:49;26.40;;;24.35;;
2019;SDS011;1014;51.960;8.542;2022-12-16T01:22:17;27.02;;;24.85;;
2019;SDS011;1014;51.960;8.542;2022-12-16T01:24:44;25.98;;;24.15;;
2019;SDS011;1014;51.960;8.542;2022-12-16T01:27:11;26.40;;;24.40;;
2019;SDS011;1014;51.960;8.542;2022-12-16T01:29:38;27.20;;;25.33;;
2019;SDS011;1014;51.960;8.542;2022-12-16T01:32:05;26.30;;;24.20;;
2019;SDS011;1014;51.960;8.542;2022-12-16T01:34:34;27.45;;;25.70;;
2019;SDS011;1014;51.960;8.542;2022-12-16T01:37:01;29.65;;;27.27;;
2019;SDS011;1014;51.960;8.542;2022-12-16T01:39:28;28.08;;;25.98;;
2019;SDS011;1014;51.960;8.542;2022-12-16T01:41:55;26.48;;;24.58;;
2019;SDS011;1014;51.960;8.542;2022-12-16T01:44:23;27.13;;;24.90;;
2019;SDS011;1014;51.960;8.542;2022-12-16T01:46:51;27.65;;;25.45;;
2019;SDS011;1014;51.960;8.542;2022-12-16T01:49:20;28.52;;;26.20;;
2019;SDS011;1014;51.960;8.542;2022-12-16T01:51:50;26.58;;;24.58;;
2019;SDS011;1014;51.960;8.542;2022-12-16T01:54:18;28.92;;;26.83;;
2019;SDS011;1014;51.960;8.542;2022-12-16T01:56:48;27.90;;;25.85;;
2019;SDS011;1014;51.960;8.542;2022-12-16T01:59:16;27.63;;;25.42;;
2019;SDS011;1014;51.960;8.542;2022-12-16T02:01:45;28.65;;;26.65;;
2019;SDS011;1014;51.960;8.542;2022-12-16T02:04:12;27.10;;;25.20;;
2019;SDS011;1014;51.960;8.542;2022-12-16T02:06:39;29.05;;;26.48;;
2019;SDS011;1014;51.960;8.542;2022-12-16T02:09:08;27.92;;;26.02;;
2019;SDS011;1014;51.960;8.542;2022-12-16T02:11:41;27.60;;;25.60;;
2019;SDS011;1014;51.960;8.542;2022-12-16T02:14:16;28.55;;;26.45;;
2019;SDS011;1014;51.960;8.542;2022-12-16T02:16:49;28.05;;;26.05;;
2019;SDS011;1014;51.960;8.542;2022-12-16T02:19:26;27.15;;;25.15;;
2019;SDS011;1014;51.960;8.542;2022-12-16T02:22:02;27.05;;;25.13;;
2019;SDS011;1014;51.960;8.542;2022-12-16T02:24:43;27.83;;;26.02;;
2019;SDS011;1014;51.960;8.542;2022-12-16T02:33:07;27.48;;;25.48;;
2019;SDS011;1014;51.960;8.542;2022-12-16T02:35:37;29.08;;;27.27;;
2019;SDS011;1014;51.960;8.542;2022-12-16T02:38:10;28.90;;;26.88;;
2019;SDS011;1014;51.960;8.542;2022-12-16T02:40:40;28.00;;;25.95;;
2019;SDS011;1014;51.960;8.542;2022-12-16T02:43:10;27.48;;;25.30;;
2019;SDS011;1014;51.960;8.542;2022-12-16T02:45:38;29.35;;;26.98;;
2019;SDS011;1014;51.960;8.542;2022-12-16T02:48:07;28.05;;;25.95;;
2019;SDS011;1014;51.960;8.542;2022-12-16T02:50:37;28.58;;;26.48;;
2019;SDS011;1014;51.960;8.542;2022-12-16T02:53:06;27.95;;;25.75;;
2019;SDS011;1014;51.960;8.542;2022-12-16T02:55:37;27.77;;;25.67;;
2019;SDS011;1014;51.960;8.542;2022-12-16T02:58:08;28.73;;;26.63;;
2019;SDS011;1014;51.960;8.542;2022-12-16T03:00:39;27.95;;;26.00;;
2019;SDS011;1014;51.960;8.542;2022-12-16T03:03:09;26.38;;;24.67;;
2019;SDS011;1014;51.960;8.542;2022-12-16T03:05:38;26.35;;;24.55;;
2019;SDS011;1014;51.960;8.542;2022-12-16T03:08:10;27.55;;;25.70;;
2019;SDS011;1014;51.960;8.542;2022-12-16T03:10:41;25.90;;;24.30;;
2019;SDS011;1014;51.960;8.542;2022-12-16T03:13:09;25.67;;;23.92;;
2019;SDS011;1014;51.960;8.542;2022-12-16T03:15:37;27.42;;;25.63;;
2019;SDS011;1014;51.960;8.542;2022-12-16T03:18:05;27.67;;;25.63;;
2019;SDS011;1014;51.960;8.542;2022-12-16T03:20:35;27.58;;;25.20;;
2019;SDS011;1014;51.960;8.542;2022-12-16T03:23:03;26.70;;;24.70;;
2019;SDS011;1014;51.960;8.542;2022-12-16T03:25:32;25.60;;;23.98;;
2019;SDS011;1014;51.960;8.542;2022-12-16T03:28:02;25.60;;;23.98;;
2019;SDS011;1014;51.960;8.542;2022-12-16T03:30:31;25.83;;;24.13;;
2019;SDS011;1014;51.960;8.542;2022-12-16T03:33:00;26.13;;;24.40;;
2019;SDS011;1014;51.960;8.542;2022-12-16T03:35:31;25.88;;;23.98;;
2019;SDS011;1014;51.960;8.542;2022-12-16T03:38:02;26.10;;;24.25;;
2019;SDS011;1014;51.960;8.542;2022-12-16T03:40:30;26.77;;;24.30;;
2019;SDS011;1014;51.960;8.542;2022-12-16T03:42:58;26.20;;;24.33;;
2019;SDS011;1014;51.960;8.542;2022-12-16T03:45:27;25.67;;;23.95;;
2019;SDS011;1014;51.960;8.542;2022-12-16T03:47:56;25.95;;;24.25;;
2019;SDS011;1014;51.960;8.542;2022-12-16T03:50:24;26.98;;;25.08;;
2019;SDS011;1014;51.960;8.542;2022-12-16T03:52:52;25.88;;;24.08;;
2019;SDS011;1014;51.960;8.542;2022-12-16T03:55:21;26.88;;;24.77;;
2019;SDS011;1014;51.960;8.542;2022-12-16T03:57:48;26.60;;;24.67;;
2019;SDS011;1014;51.960;8.542;2022-12-16T04:00:15;24.90;;;23.35;;
2019;SDS011;1014;51.960;8.542;2022-12-16T04:02:42;26.30;;;24.60;;
2019;SDS011;1014;51.960;8.542;2022-12-16T04:05:09;26.77;;;24.90;;
2019;SDS011;1014;51.960;8.542;2022-12-16T04:07:36;26.88;;;24.77;;
2019;SDS011;1014;51.960;8.542;2022-12-16T04:10:04;25.88;;;23.98;;
2019;SDS011;1014;51.960;8.542;2022-12-16T04:12:33;26.42;;;24.50;;
2019;SDS011;1014;51.960;8.542;2022-12-16T04:15:17;25.80;;;24.02;;
2019;SDS011;1014;51.960;8.542;2022-12-16T04:18:02;25.20;;;23.45;;
2019;SDS011;1014;51.960;8.542;2022-12-16T04:20:48;24.90;;;23.40;;
2019;SDS011;1014;51.960;8.542;2022-12-16T04:23:34;25.42;;;23.05;;
2019;SDS011;1014;51.960;8.542;2022-12-16T04:26:19;24.77;;;23.17;;
2019;SDS011;1014;51.960;8.542;2022-12-16T04:28:48;24.08;;;22.48;;
2019;SDS011;1014;51.960;8.542;2022-12-16T04:31:15;24.38;;;22.77;;
2019;SDS011;1014;51.960;8.542;2022-12-16T04:33:42;23.70;;;21.92;;
2019;SDS011;1014;51.960;8.542;2022-12-16T04:36:27;22.50;;;21.20;;
2019;SDS011;1014;51.960;8.542;2022-12-16T04:39:11;24.17;;;22.67;;
2019;SDS011;1014;51.960;8.542;2022-12-16T04:41:56;22.98;;;21.38;;
2019;SDS011;1014;51.960;8.542;2022-12-16T04:44:42;23.83;;;22.33;;
2019;SDS011;1014;51.960;8.542;2022-12-16T04:47:26;25.08;;;23.35;;
2019;SDS011;1014;51.960;8.542;2022-12-16T04:50:11;23.25;;;21.95;;
2019;SDS011;1014;51.960;8.542;2022-12-16T04:52:56;23.38;;;21.67;;
2019;SDS011;1014;51.960;8.542;2022-12-16T04:55:40;23.10;;;21.70;;
2019;SDS011;1014;51.960;8.542;2022-12-16T04:58:25;22.65;;;21.35;;
2019;SDS011;1014;51.960;8.542;2022-12-16T05:01:11;24.48;;;22.75;;
2019;SDS011;1014;51.960;8.542;2022-12-16T05:04:10;23.20;;;21.70;;
2019;SDS011;1014;51.960;8.542;2022-12-16T05:06:55;24.95;;;23.20;;
2019;SDS011;1014;51.960;8.542;2022-12-16T05:09:39;22.70;;;21.50;;
2019;SDS011;1014;51.960;8.542;2022-12-16T05:12:24;23.50;;;21.92;;
2019;SDS011;1014;51.960;8.542;2022-12-16T05:15:09;24.00;;;22.38;;
2019;SDS011;1014;51.960;8.542;2022-12-16T05:17:55;24.20;;;22.63;;
2019;SDS011;1014;51.960;8.542;2022-12-16T05:20:40;24.23;;;22.45;;
2019;SDS011;1014;51.960;8.542;2022-12-16T05:23:24;24.15;;;22.10;;
2019;SDS011;1014;51.960;8.542;2022-12-16T05:26:09;23.67;;;22.27;;
2019;SDS011;1014;51.960;8.542;2022-12-16T05:28:53;25.80;;;23.23;;
2019;SDS011;1014;51.960;8.542;2022-12-16T05:31:38;24.73;;;22.88;;
2019;SDS011;1014;51.960;8.542;2022-12-16T05:34:24;23.55;;;22.15;;
2019;SDS011;1014;51.960;8.542;2022-12-16T05:37:08;24.33;;;22.63;;
2019;SDS011;1014;51.960;8.542;2022-12-16T05:39:53;22.83;;;21.52;;
2019;SDS011;1014;51.960;8.542;2022-12-16T05:42:37;23.77;;;22.13;;
2019;SDS011;1014;51.960;8.542;2022-12-16T05:45:22;21.65;;;20.20;;
2019;SDS011;1014;51.960;8.542;2022-12-16T05:48:07;21.27;;;20.08;;
2019;SDS011;1014;51.960;8.542;2022-12-16T05:50:53;22.58;;;20.88;;
2019;SDS011;1014;51.960;8.542;2022-12-16T05:53:37;22.33;;;21.00;;
2019;SDS011;1014;51.960;8.542;2022-12-16T05:56:22;22.48;;;21.15;;
2019;SDS011;1014;51.960;8.542;2022-12-16T05:59:06;22.58;;;21.25;;
2019;SDS011;1014;51.960;8.542;2022-12-16T06:01:56;24.05;;;22.55;;
2019;SDS011;1014;51.960;8.542;2022-12-16T06:04:41;24.85;;;23.05;;
2019;SDS011;1014;51.960;8.542;2022-12-16T06:07:27;23.45;;;21.88;;
2019;SDS011;1014;51.960;8.542;2022-12-16T06:10:12;23.00;;;21.35;;
2019;SDS011;1014;51.960;8.542;2022-12-16T06:12:56;22.75;;;21.35;;
2019;SDS011;1014;51.960;8.542;2022-12-16T06:15:41;21.67;;;20.27;;
2019;SDS011;1014;51.960;8.542;2022-12-16T06:18:26;22.67;;;21.05;;
2019;SDS011;1014;51.960;8.542;2022-12-16T06:21:10;21.48;;;20.10;;
2019;SDS011;1014;51.960;8.542;2022-12-16T06:23:56;22.17;;;20.98;;
2019;SDS011;1014;51.960;8.542;2022-12-16T06:26:41;21.67;;;20.48;;
2019;SDS011;1014;51.960;8.542;2022-12-16T06:29:25;22.73;;;21.52;;
2019;SDS011;1014;51.960;8.542;2022-12-16T06:32:10;23.27;;;21.83;;
2019;SDS011;1014;51.960;8.542;2022-12-16T06:34:54;22.70;;;21.23;;
2019;SDS011;1014;51.960;8.542;2022-12-16T06:37:39;24.05;;;22.55;;
2019;SDS011;1014;51.960;8.542;2022-12-16T06:40:25;24.25;;;22.80;;
2019;SDS011;1014;51.960;8.542;2022-12-16T06:43:10;22.92;;;21.42;;
2019;SDS011;1014;51.960;8.542;2022-12-16T06:45:54;21.67;;;20.45;;
2019;SDS011;1014;51.960;8.542;2022-12-16T06:48:39;22.30;;;20.90;;
2019;SDS011;1014;51.960;8.542;2022-12-16T06:51:24;21.58;;;20.33;;
2019;SDS011;1014;51.960;8.542;2022-12-16T06:54:08;23.88;;;22.38;;
2019;SDS011;1014;51.960;8.542;2022-12-16T06:56:54;25.10;;;23.27;;
2019;SDS011;1014;51.960;8.542;2022-12-16T06:59:39;23.90;;;22.45;;
2019;SDS011;1014;51.960;8.542;2022-12-16T07:02:24;27.27;;;25.35;;
2019;SDS011;1014;51.960;8.542;2022-12-16T07:05:08;23.60;;;22.23;;
2019;SDS011;1014;51.960;8.542;2022-12-16T07:07:53;23.55;;;22.15;;
2019;SDS011;1014;51.960;8.542;2022-12-16T07:10:37;23.90;;;22.40;;
2019;SDS011;1014;51.960;8.542;2022-12-16T07:13:23;24.48;;;22.92;;
2019;SDS011;1014;51.960;8.542;2022-12-16T07:16:08;24.30;;;22.70;;
2019;SDS011;1014;51.960;8.542;2022-12-16T07:18:52;25.52;;;23.65;;
2019;SDS011;1014;51.960;8.542;2022-12-16T07:21:37;24.27;;;22.70;;
2019;SDS011;1014;51.960;8.542;2022-12-16T07:24:22;24.42;;;22.83;;
2019;SDS011;1014;51.960;8.542;2022-12-16T07:27:06;23.92;;;22.52;;
2019;SDS011;1014;51.960;8.542;2022-12-16T07:29:52;25.30;;;23.70;;
2019;SDS011;1014;51.960;8.542;2022-12-16T07:32:37;24.73;;;22.80;;
2019;SDS011;1014;51.960;8.542;2022-12-16T07:35:21;24.20;;;22.80;;
2019;SDS011;1014;51.960;8.542;2022-12-16T07:38:06;24.25;;;22.63;;
2019;SDS011;1014;51.960;8.542;2022-12-16T07:40:51;23.13;;;21.70;;
2019;SDS011;1014;51.960;8.542;2022-12-16T07:43:35;23.45;;;21.75;;
2019;SDS011;1014;51.960;8.542;2022-12-16T07:46:21;26.60;;;23.65;;
2019;SDS011;1014;51.960;8.542;2022-12-16T07:49:06;24.50;;;22.85;;
2019;SDS011;1014;51.960;8.542;2022-12-16T07:51:50;25.55;;;23.60;;
2019;SDS011;1014;51.960;8.542;2022-12-16T07:54:35;26.13;;;24.20;;
2019;SDS011;1014;51.960;8.542;2022-12-16T07:57:19;25.10;;;23.50;;
2019;SDS011;1014;51.960;8.542;2022-12-16T08:00:04;26.27;;;24.45;;
2019;SDS011;1014;51.960;8.542;2022-12-16T08:02:52;26.40;;;24.60;;
2019;SDS011;1014;51.960;8.542;2022-12-16T08:05:37;25.73;;;23.70;;
2019;SDS011;1014;51.960;8.542;2022-12-16T08:08:23;24.55;;;23.00;;
2019;SDS011;1014;51.960;8.542;2022-12-16T08:11:08;27.02;;;24.70;;
2019;SDS011;1014;51.960;8.542;2022-12-16T08:13:52;28.35;;;25.75;;
2019;SDS011;1014;51.960;8.542;2022-12-16T08:16:37;28.33;;;26.00;;
2019;SDS011;1014;51.960;8.542;2022-12-16T08:19:23;32.05;;;29.38;;
2019;SDS011;1014;51.960;8.542;2022-12-16T08:22:08;28.50;;;26.35;;
2019;SDS011;1014;51.960;8.542;2022-12-16T08:24:52;28.65;;;26.13;;
2019;SDS011;1014;51.960;8.542;2022-12-16T08:27:37;30.40;;;27.73;;
2019;SDS011;1014;51.960;8.542;2022-12-16T08:30:21;29.02;;;26.80;;
2019;SDS011;1014;51.960;8.542;2022-12-16T08:33:06;25.75;;;23.95;;
2019;SDS011;1014;51.960;8.542;2022-12-16T08:35:52;26.90;;;24.80;;
2019;SDS011;1014;51.960;8.542;2022-12-16T08:38:37;31.58;;;28.80;;
2019;SDS011;1014;51.960;8.542;2022-12-16T08:41:22;29.73;;;26.73;;
2019;SDS011;1014;51.960;8.542;2022-12-16T08:44:06;32.55;;;26.67;;
2019;SDS011;1014;51.960;8.542;2022-12-16T08:46:51;29.30;;;26.95;;
2019;SDS011;1014;51.960;8.542;2022-12-16T08:49:36;30.13;;;27.83;;
2019;SDS011;1014;51.960;8.542;2022-12-16T08:52:22;26.95;;;24.92;;
2019;SDS011;1014;51.960;8.542;2022-12-16T08:55:06;27.73;;;25.63;;
2019;SDS011;1014;51.960;8.542;2022-12-16T08:57:53;27.15;;;25.20;;
2019;SDS011;1014;51.960;8.542;2022-12-16T09:00:38;27.35;;;25.13;;
2019;SDS011;1014;51.960;8.542;2022-12-16T09:03:23;28.38;;;25.92;;
2019;SDS011;1014;51.960;8.542;2022-12-16T09:06:07;28.15;;;26.13;;
2019;SDS011;1014;51.960;8.542;2022-12-16T09:08:53;26.88;;;24.85;;
2019;SDS011;1014;51.960;8.542;2022-12-16T09:11:38;29.20;;;26.83;;
2019;SDS011;1014;51.960;8.542;2022-12-16T09:14:23;29.13;;;26.83;;
2019;SDS011;1014;51.960;8.542;2022-12-16T09:17:07;33.22;;;29.77;;
2019;SDS011;1014;51.960;8.542;2022-12-16T09:19:52;30.98;;;28.25;;
2019;SDS011;1014;51.960;8.542;2022-12-16T09:22:36;30.65;;;27.52;;
2019;SDS011;1014;51.960;8.542;2022-12-16T09:25:22;31.55;;;28.48;;
2019;SDS011;1014;51.960;8.542;2022-12-16T09:28:07;28.02;;;25.52;;
2019;SDS011;1014;51.960;8.542;2022-12-16T09:30:51;30.95;;;28.13;;
2019;SDS011;1014;51.960;8.542;2022-12-16T09:33:36;32.10;;;28.98;;
2019;SDS011;1014;51.960;8.542;2022-12-16T09:36:21;30.83;;;28.00;;
2019;SDS011;1014;51.960;8.542;2022-12-16T09:39:05;29.88;;;26.85;;
2019;SDS011;1014;51.960;8.542;2022-12-16T09:41:54;26.63;;;24.63;;
2019;SDS011;1014;51.960;8.542;2022-12-16T09:44:46;27.83;;;25.05;;
2019;SDS011;1014;51.960;8.542;2022-12-16T09:47:34;27.42;;;25.33;;
2019;SDS011;1014;51.960;8.542;2022-12-16T09:50:22;29.73;;;27.20;;
2019;SDS011;1014;51.960;8.542;2022-12-16T09:53:09;27.25;;;25.00;;
2019;SDS011;1014;51.960;8.542;2022-12-16T09:55:54;28.55;;;26.17;;
2019;SDS011;1014;51.960;8.542;2022-12-16T09:58:41;26.63;;;24.63;;
2019;SDS011;1014;51.960;8.542;2022-12-16T10:01:27;26.98;;;24.65;;
2019;SDS011;1014;51.960;8.542;2022-12-16T10:04:15;26.42;;;24.30;;
2019;SDS011;1014;51.960;8.542;2022-12-16T10:06:59;25.77;;;23.88;;
2019;SDS011;1014;51.960;8.542;2022-12-16T10:09:51;27.15;;;25.30;;
2019;SDS011;1014;51.960;8.542;2022-12-16T10:12:41;28.17;;;25.67;;
2019;SDS011;1014;51.960;8.542;2022-12-16T10:15:33;26.90;;;24.52;;
2019;SDS011;1014;51.960;8.542;2022-12-16T10:18:23;26.23;;;24.23;;
2019;SDS011;1014;51.960;8.542;2022-12-16T10:21:12;27.23;;;25.35;;
2019;SDS011;1014;51.960;8.542;2022-12-16T10:23:56;27.15;;;25.10;;
2019;SDS011;1014;51.960;8.542;2022-12-16T10:26:44;29.67;;;26.95;;
2019;SDS011;1014;51.960;8.542;2022-12-16T10:29:32;27.30;;;25.30;;
2019;SDS011;1014;51.960;8.542;2022-12-16T10:32:21;27.27;;;25.17;;
2019;SDS011;1014;51.960;8.542;2022-12-16T10:35:13;28.60;;;25.85;;
2019;SDS011;1014;51.960;8.542;2022-12-16T10:38:00;27.67;;;25.77;;
2019;SDS011;1014;51.960;8.542;2022-12-16T10:40:45;28.67;;;26.50;;
2019;SDS011;1014;51.960;8.542;2022-12-16T10:43:32;31.00;;;28.00;;
2019;SDS011;1014;51.960;8.542;2022-12-16T10:46:19;31.27;;;28.38;;
2019;SDS011;1014;51.960;8.542;2022-12-16T10:49:06;29.73;;;27.42;;
2019;SDS011;1014;51.960;8.542;2022-12-16T10:51:52;29.60;;;27.20;;
2019;SDS011;1014;51.960;8.542;2022-12-16T10:54:38;27.40;;;25.58;;
2019;SDS011;1014;51.960;8.542;2022-12-16T10:57:26;29.38;;;27.08;;
2019;SDS011;1014;51.960;8.542;2022-12-16T11:00:15;28.50;;;26.15;;
2019;SDS011;1014;51.960;8.542;2022-12-16T11:03:15;29.30;;;27.00;;
2019;SDS011;1014;51.960;8.542;2022-12-16T11:06:02;30.45;;;27.98;;
2019;SDS011;1014;51.960;8.542;2022-12-16T11:08:47;28.98;;;26.33;;
2019;SDS011;1014;51.960;8.542;2022-12-16T11:11:32;28.52;;;26.33;;
2019;SDS011;1014;51.960;8.542;2022-12-16T11:14:19;29.35;;;27.08;;
2019;SDS011;1014;51.960;8.542;2022-12-16T11:17:11;29.40;;;26.70;;
2019;SDS011;1014;51.960;8.542;2022-12-16T11:20:15;28.10;;;25.77;;
2019;SDS011;1014;51.960;8.542;2022-12-16T11:23:07;28.08;;;25.45;;
2019;SDS011;1014;51.960;8.542;2022-12-16T11:26:02;26.63;;;24.73;;
2019;SDS011;1014;51.960;8.542;2022-12-16T11:28:57;28.48;;;25.48;;
2019;SDS011;1014;51.960;8.542;2022-12-16T11:31:45;28.17;;;25.85;;
2019;SDS011;1014;51.960;8.542;2022-12-16T11:34:32;29.88;;;27.70;;
2019;SDS011;1014;51.960;8.542;2022-12-16T11:37:18;29.33;;;27.10;;
2019;SDS011;1014;51.960;8.542;2022-12-16T11:40:05;30.15;;;27.50;;
2019;SDS011;1014;51.960;8.542;2022-12-16T11:42:52;31.42;;;28.73;;
2019;SDS011;1014;51.960;8.542;2022-12-16T11:45:36;30.50;;;27.70;;
2019;SDS011;1014;51.960;8.542;2022-12-16T11:48:22;29.88;;;27.77;;
2019;SDS011;1014;51.960;8.542;2022-12-16T11:51:13;29.35;;;27.13;;
2019;SDS011;1014;51.960;8.542;2022-12-16T11:53:59;31.23;;;28.63;;
2019;SDS011;1014;51.960;8.542;2022-12-16T11:56:49;30.33;;;27.83;;
2019;SDS011;1014;51.960;8.542;2022-12-16T11:59:35;30.00;;;27.80;;
2019;SDS011;1014;51.960;8.542;2022-12-16T12:02:22;26.52;;;24.17;;
2019;SDS011;1014;51.960;8.542;2022-12-16T12:05:10;30.35;;;27.85;;
2019;SDS011;1014;51.960;8.542;2022-12-16T12:07:56;28.63;;;26.70;;
2019;SDS011;1014;51.960;8.542;2022-12-16T12:10:49;30.88;;;28.48;;
2019;SDS011;1014;51.960;8.542;2022-12-16T12:16:42;30.30;;;27.90;;
2019;SDS011;1014;51.960;8.542;2022-12-16T12:19:28;29.67;;;27.38;;
2019;SDS011;1014;51.960;8.542;2022-12-16T12:22:24;28.35;;;26.38;;
2019;SDS011;1014;51.960;8.542;2022-12-16T12:25:13;29.67;;;27.33;;
2019;SDS011;1014;51.960;8.542;2022-12-16T12:28:22;32.25;;;29.55;;
2019;SDS011;1014;51.960;8.542;2022-12-16T12:31:13;29.80;;;27.00;;
2019;SDS011;1014;51.960;8.542;2022-12-16T12:34:03;29.00;;;26.60;;
2019;SDS011;1014;51.960;8.542;2022-12-16T12:36:50;31.90;;;29.25;;
2019;SDS011;1014;51.960;8.542;2022-12-16T12:39:38;31.27;;;28.50;;
2019;SDS011;1014;51.960;8.542;2022-12-16T12:42:27;26.45;;;24.58;;
2019;SDS011;1014;51.960;8.542;2022-12-16T12:45:24;30.35;;;27.85;;
2019;SDS011;1014;51.960;8.542;2022-12-16T12:48:17;31.40;;;28.50;;
2019;SDS011;1014;51.960;8.542;2022-12-16T12:51:06;31.20;;;28.45;;
2019;SDS011;1014;51.960;8.542;2022-12-16T12:53:54;30.33;;;27.73;;
2019;SDS011;1014;51.960;8.542;2022-12-16T12:56:41;28.55;;;26.10;;
2019;SDS011;1014;51.960;8.542;2022-12-16T12:59:28;31.38;;;28.38;;
2019;SDS011;1014;51.960;8.542;2022-12-16T13:02:16;32.95;;;29.67;;
2019;SDS011;1014;51.960;8.542;2022-12-16T13:05:02;30.92;;;28.23;;
2019;SDS011;1014;51.960;8.542;2022-12-16T13:07:49;32.95;;;30.00;;
2019;SDS011;1014;51.960;8.542;2022-12-16T13:10:34;31.00;;;27.85;;
2019;SDS011;1014;51.960;8.542;2022-12-16T13:13:21;29.83;;;27.23;;
2019;SDS011;1014;51.960;8.542;2022-12-16T13:16:39;32.30;;;29.52;;
2019;SDS011;1014;51.960;8.542;2022-12-16T13:22:28;30.58;;;27.90;;
2019;SDS011;1014;51.960;8.542;2022-12-16T13:28:30;33.17;;;30.17;;
2019;SDS011;1014;51.960;8.542;2022-12-16T13:31:15;30.05;;;27.83;;
2019;SDS011;1014;51.960;8.542;2022-12-16T13:34:02;31.67;;;28.95;;
2019;SDS011;1014;51.960;8.542;2022-12-16T13:36:54;29.85;;;27.55;;
2019;SDS011;1014;51.960;8.542;2022-12-16T13:39:40;31.48;;;28.88;;
2019;SDS011;1014;51.960;8.542;2022-12-16T13:45:31;30.50;;;28.00;;
2019;SDS011;1014;51.960;8.542;2022-12-16T13:48:27;31.55;;;28.77;;
2019;SDS011;1014;51.960;8.542;2022-12-16T13:54:11;32.20;;;29.80;;
2019;SDS011;1014;51.960;8.542;2022-12-16T13:56:56;30.27;;;28.08;;
2019;SDS011;1014;51.960;8.542;2022-12-16T13:59:44;32.97;;;30.27;;
2019;SDS011;1014;51.960;8.542;2022-12-16T14:02:34;33.40;;;30.88;;
2019;SDS011;1014;51.960;8.542;2022-12-16T14:05:21;33.60;;;31.02;;
2019;SDS011;1014;51.960;8.542;2022-12-16T14:08:09;34.58;;;31.80;;
2019;SDS011;1014;51.960;8.542;2022-12-16T14:10:59;33.53;;;30.52;;
2019;SDS011;1014;51.960;8.542;2022-12-16T14:13:46;33.55;;;30.73;;
2019;SDS011;1014;51.960;8.542;2022-12-16T14:16:36;32.97;;;30.02;;
2019;SDS011;1014;51.960;8.542;2022-12-16T14:19:28;32.97;;;30.27;;
2019;SDS011;1014;51.960;8.542;2022-12-16T14:22:21;33.30;;;30.70;;
2019;SDS011;1014;51.960;8.542;2022-12-16T14:25:11;33.75;;;30.80;;
2019;SDS011;1014;51.960;8.542;2022-12-16T14:28:15;33.75;;;30.83;;
2019;SDS011;1014;51.960;8.542;2022-12-16T14:31:03;33.10;;;30.25;;
2019;SDS011;1014;51.960;8.542;2022-12-16T14:33:51;35.55;;;32.40;;
2019;SDS011;1014;51.960;8.542;2022-12-16T14:36:38;35.83;;;32.60;;
2019;SDS011;1014;51.960;8.542;2022-12-16T14:39:26;35.53;;;32.33;;
2019;SDS011;1014;51.960;8.542;2022-12-16T14:42:14;34.95;;;31.83;;
2019;SDS011;1014;51.960;8.542;2022-12-16T14:45:01;34.47;;;31.67;;
2019;SDS011;1014;51.960;8.542;2022-12-16T14:47:47;33.38;;;30.35;;
2019;SDS011;1014;51.960;8.542;2022-12-16T14:50:37;34.78;;;31.77;;
2019;SDS011;1014;51.960;8.542;2022-12-16T14:53:28;36.70;;;33.15;;
2019;SDS011;1014;51.960;8.542;2022-12-16T14:56:14;38.88;;;35.40;;
2019;SDS011;1014;51.960;8.542;2022-12-16T14:59:05;37.72;;;34.30;;
2019;SDS011;1014;51.960;8.542;2022-12-16T15:01:50;38.22;;;34.47;;
2019;SDS011;1014;51.960;8.542;2022-12-16T15:04:36;38.95;;;35.35;;
2019;SDS011;1014;51.960;8.542;2022-12-16T15:07:20;38.28;;;34.75;;
2019;SDS011;1014;51.960;8.542;2022-12-16T15:10:10;37.88;;;34.28;;
2019;SDS011;1014;51.960;8.542;2022-12-16T15:12:57;35.58;;;32.30;;
2019;SDS011;1014;51.960;8.542;2022-12-16T15:15:42;35.95;;;32.72;;
2019;SDS011;1014;51.960;8.542;2022-12-16T15:18:29;35.60;;;32.50;;
2019;SDS011;1014;51.960;8.542;2022-12-16T15:21:15;36.08;;;32.67;;
2019;SDS011;1014;51.960;8.542;2022-12-16T15:24:00;35.17;;;32.08;;
2019;SDS011;1014;51.960;8.542;2022-12-16T15:26:45;37.85;;;34.65;;
2019;SDS011;1014;51.960;8.542;2022-12-16T15:29:32;35.58;;;32.15;;
2019;SDS011;1014;51.960;8.542;2022-12-16T15:32:27;35.30;;;32.25;;
2019;SDS011;1014;51.960;8.542;2022-12-16T15:35:22;35.30;;;32.30;;
2019;SDS011;1014;51.960;8.542;2022-12-16T15:38:09;37.50;;;34.15;;
2019;SDS011;1014;51.960;8.542;2022-12-16T15:40:54;36.45;;;33.13;;
2019;SDS011;1014;51.960;8.542;2022-12-16T15:43:39;36.33;;;33.22;;
2019;SDS011;1014;51.960;8.542;2022-12-16T15:46:25;36.70;;;33.40;;
2019;SDS011;1014;51.960;8.542;2022-12-16T15:49:16;35.70;;;32.70;;
2019;SDS011;1014;51.960;8.542;2022-12-16T15:52:02;35.75;;;32.53;;
2019;SDS011;1014;51.960;8.542;2022-12-16T15:55:20;37.55;;;33.83;;
2019;SDS011;1014;51.960;8.542;2022-12-16T15:58:10;38.00;;;34.63;;
2019;SDS011;1014;51.960;8.542;2022-12-16T16:00:57;35.50;;;32.00;;
2019;SDS011;1014;51.960;8.542;2022-12-16T16:03:46;35.83;;;32.65;;
2019;SDS011;1014;51.960;8.542;2022-12-16T16:06:31;36.20;;;33.05;;
2019;SDS011;1014;51.960;8.542;2022-12-16T16:09:19;35.33;;;32.22;;
2019;SDS011;1014;51.960;8.542;2022-12-16T16:12:04;36.20;;;33.15;;
2019;SDS011;1014;51.960;8.542;2022-12-16T16:14:49;36.30;;;33.15;;
2019;SDS011;1014;51.960;8.542;2022-12-16T16:17:35;34.10;;;31.35;;
2019;SDS011;1014;51.960;8.542;2022-12-16T16:20:20;36.88;;;33.33;;
2019;SDS011;1014;51.960;8.542;2022-12-16T16:23:04;35.85;;;32.60;;
2019;SDS011;1014;51.960;8.542;2022-12-16T16:25:49;35.55;;;32.33;;
2019;SDS011;1014;51.960;8.542;2022-12-16T16:28:33;35.15;;;32.25;;
2019;SDS011;1014;51.960;8.542;2022-12-16T16:31:29;35.95;;;32.75;;
2019;SDS011;1014;51.960;8.542;2022-12-16T16:34:15;36.10;;;32.95;;
2019;SDS011;1014;51.960;8.542;2022-12-16T16:37:00;35.80;;;32.58;;